METAR
METAR

METAR

METAR EPSY 071100Z 22011KT 9999 FEW043 19/09 Q1016=
TAF EPSY 070830Z 0709/0718 25010KT 9999 FEW035=
Ostrzeżenia
Ostrzeżenia

Ostrzeżenia

BRAK